Terminal Aerodrome Forecast
Issued by NWS

Home | Current Version | Previous Version | Text Only | Print | Product List | Glossary On
Versions: 1 2 3 4 5 6 7 8 9 10 11 12 13 14 15 16 17 18 19 20 21 22 23 24 25
000
FTUS44 KLIX 311729
TAFHDC
TAF
KHDC 311729Z 3118/0118 VRB03KT P6SM SCT045 BKN060
     FM312300 VRB03KT P6SM FEW250
      TEMPO 0111/0113 5SM BR SKC=

USA.gov is the U.S. government's official web portal to all federal, state and local government web resources and services.